首页
METAR-TAF:

METAR-TAF

机场 :

亚丁·阿德国际机场

摩加迪休, 索马里

纬度: 02-02N, 经度: 045-21E, 海拔: 9米

当前天气观测

该预报发布于11小时和31分钟前的16:00 UTC
风速19节,风向南转西南
温度 27°C
湿度 84%
气压 1013 hPa
能见度10公里或以上
多云层高于2100英尺

METAR: HCMM 211600Z 20019KT 9999 BKN021 27/24 Q1013

时间: 06:31 (03:31 UTC)

预报

该预报发布于16小时和31分钟前的11:00 UTC
预报有效从21日的 12点(UTC)到 22日的 18点(UTC)
风速18节,风向南转西南
能见度10公里或以上
散云层高于2500英尺
短暂存在
从 22日的 01点(UTC)到 22日的 06点(UTC)
风速10节,风向南转西南
少量云层高于2000英尺, 塔状积云.
多云层高于2200英尺
小阵雨
成为
从 22日的 09点(UTC)到 22日的 11点(UTC)
风速19节,风向南转西南
少量云层高于2500英尺

TAF: HCMM 211100Z 2112/2218 21018KT 9999 SCT025 TEMPO 2201/2206 21010KT -SHRA FEW020TCU BKN022 BECMG 2209/2211 21019KT NSW FEW025

超过4000个机场的气象观测和天气预报(METAR&TAF报告)。

可查询的气象台以黄色和红色小点在地图上表示。

将鼠标移到小点上方,可查看气象台名称。

然后点击查看天气观测和预报。

如需切换地图:点击带黑十字的绿色按钮放大地图;点击带横线的绿色按钮缩小地图;或者点击绿色箭头查看邻近地区的地图。


METAR-TAF: